Time;durP1;ratioP1;P1;durP2;ratioP2;P2;SDS_P1;SDS_P2;PMS_P1;PMS_P2;Temp;Humidity;BMP_temperature;BMP_pressure;BME280_temperature;BME280_humidity;BME280_pressure;Samples;Min_cycle;Max_cycle;Signal;HPM_P1;HPM_P2
2023/11/22 00:00:46;;;;;;;9.53;7.70;;;11.30;99.90;;;;;;5021293;28;20470;-68
2023/11/22 00:03:14;;;;;;;9.33;7.13;;;11.30;99.90;;;;;;5039523;28;20421;-69
2023/11/22 00:05:41;;;;;;;8.00;6.77;;;11.30;99.90;;;;;;5039797;28;20435;-68
2023/11/22 00:08:07;;;;;;;10.02;7.38;;;11.30;99.90;;;;;;5027345;28;20458;-69
2023/11/22 00:10:37;;;;;;;8.33;7.47;;;11.30;99.90;;;;;;5022205;28;20251;-68
2023/11/22 00:13:03;;;;;;;9.60;8.27;;;11.30;99.90;;;;;;5018302;28;20482;-68
2023/11/22 00:15:32;;;;;;;9.10;7.60;;;11.30;99.90;;;;;;5002553;28;20475;-69
2023/11/22 00:18:03;;;;;;;7.70;6.65;;;11.30;99.90;;;;;;5039915;28;20419;-68
2023/11/22 00:20:34;;;;;;;8.10;6.53;;;11.30;99.90;;;;;;5022027;28;20211;-69
2023/11/22 00:23:03;;;;;;;10.40;7.27;;;11.30;99.90;;;;;;5038716;28;20474;-68
2023/11/22 00:25:30;;;;;;;8.70;6.80;;;11.30;99.90;;;;;;5037728;28;20445;-69
2023/11/22 00:27:56;;;;;;;8.43;7.03;;;11.30;99.90;;;;;;5035391;28;20457;-68
2023/11/22 00:30:25;;;;;;;8.83;6.70;;;11.30;99.90;;;;;;5038412;28;21265;-68
2023/11/22 00:32:51;;;;;;;8.77;7.20;;;11.30;99.90;;;;;;5038654;28;20442;-71
2023/11/22 00:35:18;;;;;;;7.40;6.60;;;11.20;99.90;;;;;;5021525;28;20458;-70
2023/11/22 00:37:46;;;;;;;7.00;6.30;;;11.30;99.90;;;;;;5021159;28;20208;-68
2023/11/22 00:40:13;;;;;;;8.90;6.70;;;11.30;99.90;;;;;;5020308;28;20934;-70
2023/11/22 00:42:42;;;;;;;8.88;6.43;;;11.20;99.90;;;;;;5017984;28;21051;-71
2023/11/22 00:45:09;;;;;;;7.60;6.80;;;11.30;99.90;;;;;;5038315;28;20216;-69
2023/11/22 00:47:38;;;;;;;10.32;7.00;;;11.30;99.90;;;;;;5017213;28;20458;-68
2023/11/22 00:50:07;;;;;;;8.50;7.50;;;11.30;99.90;;;;;;5021639;28;21110;-69
2023/11/22 00:52:34;;;;;;;7.88;7.07;;;11.30;99.90;;;;;;5033877;28;20797;-71
2023/11/22 00:55:03;;;;;;;9.03;7.00;;;11.40;99.90;;;;;;5035648;28;20215;-68
2023/11/22 00:57:30;;;;;;;7.68;6.30;;;11.40;99.90;;;;;;5038168;28;20508;-71
2023/11/22 01:00:05;;;;;;;8.20;6.53;;;11.40;99.90;;;;;;5014396;28;20270;-70
2023/11/22 01:02:31;;;;;;;8.77;6.90;;;11.40;99.90;;;;;;5037137;28;20575;-68
2023/11/22 01:04:59;;;;;;;11.63;7.33;;;11.30;99.90;;;;;;5037642;28;20557;-68
2023/11/22 01:07:26;;;;;;;7.70;6.40;;;11.30;99.90;;;;;;5029223;28;20451;-70
2023/11/22 01:09:53;;;;;;;7.60;6.90;;;11.30;99.90;;;;;;5020920;28;20447;-69
2023/11/22 01:12:19;;;;;;;7.80;6.47;;;11.20;99.90;;;;;;5013176;28;20494;-69
2023/11/22 01:14:45;;;;;;;8.40;6.73;;;11.20;99.90;;;;;;5036385;28;20420;-68
2023/11/22 01:17:11;;;;;;;8.37;6.53;;;11.20;99.90;;;;;;5034760;28;21072;-68
2023/11/22 01:19:37;;;;;;;6.93;5.80;;;11.10;99.90;;;;;;5022450;28;20565;-67
2023/11/22 01:22:04;;;;;;;9.13;7.90;;;11.10;99.90;;;;;;5022480;28;20575;-68
2023/11/22 01:24:33;;;;;;;7.73;6.60;;;11.10;99.90;;;;;;5021753;28;20227;-69
2023/11/22 01:26:59;;;;;;;7.77;6.27;;;11.10;99.90;;;;;;5017448;28;21182;-69
2023/11/22 01:29:26;;;;;;;9.60;6.53;;;11.10;99.90;;;;;;5032201;28;20465;-68
2023/11/22 01:31:57;;;;;;;8.00;7.20;;;11.10;99.90;;;;;;5027580;28;20423;-69
2023/11/22 01:34:25;;;;;;;7.30;6.60;;;11.10;99.90;;;;;;5018880;28;20502;-69
2023/11/22 01:36:52;;;;;;;6.73;6.03;;;11.10;99.90;;;;;;5037335;28;20450;-69
2023/11/22 01:39:23;;;;;;;7.17;6.47;;;11.00;99.90;;;;;;5034821;28;20442;-68
2023/11/22 01:41:52;;;;;;;8.38;7.25;;;11.00;99.90;;;;;;5016582;28;20474;-68
2023/11/22 01:44:19;;;;;;;7.27;6.57;;;11.00;99.90;;;;;;5032357;28;21016;-69
2023/11/22 01:46:49;;;;;;;7.87;6.83;;;11.10;99.90;;;;;;5004942;28;21057;-68
2023/11/22 01:49:17;;;;;;;7.93;6.50;;;11.10;99.90;;;;;;5016982;28;20900;-69
2023/11/22 01:51:44;;;;;;;6.77;6.00;;;11.10;99.90;;;;;;5038080;28;20201;-69
2023/11/22 01:54:14;;;;;;;10.13;6.20;;;11.10;99.90;;;;;;5001413;28;20473;-69
2023/11/22 01:56:40;;;;;;;7.30;6.50;;;11.10;99.90;;;;;;5040642;28;20466;-68
2023/11/22 01:59:11;;;;;;;7.53;6.47;;;11.10;99.90;;;;;;5021447;28;20433;-68
2023/11/22 02:01:40;;;;;;;7.33;6.40;;;11.00;99.90;;;;;;5021308;28;20517;-69
2023/11/22 02:04:09;;;;;;;6.97;5.90;;;11.00;99.90;;;;;;5020832;28;21216;-68
2023/11/22 02:06:38;;;;;;;6.40;5.80;;;11.00;99.90;;;;;;5049510;28;20472;-67
2023/11/22 02:09:04;;;;;;;8.23;7.07;;;11.00;99.90;;;;;;5037661;28;20422;-68
2023/11/22 02:11:30;;;;;;;7.03;6.20;;;11.00;99.90;;;;;;5024966;28;20434;-69
2023/11/22 02:13:59;;;;;;;7.55;6.05;;;11.00;99.90;;;;;;5013813;28;20616;-69
2023/11/22 02:16:25;;;;;;;7.53;6.40;;;11.00;99.90;;;;;;5024581;28;20209;-68
2023/11/22 02:18:53;;;;;;;6.60;5.90;;;11.00;99.90;;;;;;5040236;28;20539;-68
2023/11/22 02:21:21;;;;;;;6.60;6.00;;;11.00;99.90;;;;;;5022990;28;20478;-69
2023/11/22 02:23:53;;;;;;;7.20;6.50;;;11.00;99.90;;;;;;5036898;28;20454;-69
2023/11/22 02:26:19;;;;;;;7.10;6.33;;;10.90;99.90;;;;;;5005832;28;20615;-68
2023/11/22 02:28:52;;;;;;;7.17;6.00;;;10.90;99.90;;;;;;5036551;28;20480;-68
2023/11/22 02:31:20;;;;;;;6.80;5.75;;;10.90;99.90;;;;;;5040219;28;20437;-69
2023/11/22 02:33:49;;;;;;;6.17;5.57;;;10.90;99.90;;;;;;5018994;28;20573;-68
2023/11/22 02:36:16;;;;;;;10.85;6.47;;;10.90;99.90;;;;;;5017260;28;20562;-69
2023/11/22 02:38:45;;;;;;;6.70;6.00;;;11.00;99.90;;;;;;5040495;28;20216;-69
2023/11/22 02:41:16;;;;;;;9.47;6.00;;;11.00;99.90;;;;;;5035988;28;20426;-69
2023/11/22 02:43:42;;;;;;;6.40;5.80;;;11.00;99.90;;;;;;5031288;28;20851;-67
2023/11/22 02:46:10;;;;;;;6.83;6.23;;;11.00;99.90;;;;;;5020302;28;21105;-68
2023/11/22 02:48:39;;;;;;;6.28;5.35;;;11.00;99.90;;;;;;5015577;28;20444;-68
2023/11/22 02:51:08;;;;;;;6.18;5.57;;;10.90;99.90;;;;;;5016155;28;21277;-70
2023/11/22 02:53:37;;;;;;;6.00;5.40;;;11.00;99.90;;;;;;5023190;28;20762;-68
2023/11/22 02:56:08;;;;;;;6.10;5.50;;;11.00;99.90;;;;;;5039877;28;20445;-69
2023/11/22 02:58:35;;;;;;;6.70;6.10;;;11.00;99.90;;;;;;5023174;28;20438;-69
2023/11/22 03:01:04;;;;;;;6.30;5.37;;;10.90;99.90;;;;;;5002098;28;20974;-69
2023/11/22 03:03:30;;;;;;;6.55;5.95;;;10.90;99.90;;;;;;5018405;28;20480;-68
2023/11/22 03:05:56;;;;;;;6.13;5.53;;;10.90;99.90;;;;;;5039675;28;20201;-69
2023/11/22 03:08:23;;;;;;;6.95;5.32;;;10.90;99.90;;;;;;5034928;28;21066;-68
2023/11/22 03:10:52;;;;;;;6.13;5.50;;;10.90;99.90;;;;;;5020196;28;20199;-68
2023/11/22 03:13:22;;;;;;;6.13;5.53;;;10.90;99.90;;;;;;5031436;28;20453;-69
2023/11/22 03:15:49;;;;;;;8.10;5.77;;;10.90;99.90;;;;;;5023278;28;20463;-69
2023/11/22 03:18:16;;;;;;;7.00;5.70;;;10.90;99.90;;;;;;5035721;28;20451;-68
2023/11/22 03:20:43;;;;;;;6.50;5.80;;;10.90;99.90;;;;;;5020658;28;20475;-69
2023/11/22 03:23:16;;;;;;;5.90;5.30;;;10.80;99.90;;;;;;5039220;28;20474;-68
2023/11/22 03:25:43;;;;;;;6.30;5.70;;;10.80;99.90;;;;;;5020601;28;20455;-68
2023/11/22 03:28:09;;;;;;;7.27;6.57;;;10.80;99.90;;;;;;5012927;28;20493;-69
2023/11/22 03:30:35;;;;;;;7.03;6.33;;;10.70;99.90;;;;;;5033299;28;20534;-71
2023/11/22 03:33:04;;;;;;;7.10;6.13;;;10.70;99.90;;;;;;5040718;28;20433;-71
2023/11/22 03:35:31;;;;;;;7.37;6.07;;;10.70;99.90;;;;;;5035832;28;20200;-70
2023/11/22 03:41:12;;;;;;;6.07;5.47;;;10.80;99.90;;;;;;4983214;28;21122;-74
2023/11/22 03:43:40;;;;;;;6.20;5.60;;;10.70;99.90;;;;;;4985301;28;20430;-74
2023/11/22 03:46:11;;;;;;;6.87;5.50;;;10.70;99.90;;;;;;4963907;28;20518;-75
2023/11/22 03:48:42;;;;;;;6.43;5.83;;;10.60;99.90;;;;;;4932037;28;20473;-75
2023/11/22 03:51:08;;;;;;;8.85;6.60;;;10.60;99.90;;;;;;4972509;28;20444;-74
2023/11/22 03:53:42;;;;;;;5.77;5.20;;;10.60;99.90;;;;;;4992535;28;20273;-74
2023/11/22 03:56:08;;;;;;;7.43;6.63;;;10.70;99.90;;;;;;4981750;28;20457;-74
2023/11/22 03:58:36;;;;;;;6.60;5.87;;;10.60;99.90;;;;;;4963965;28;21060;-74
2023/11/22 04:01:04;;;;;;;6.70;5.77;;;10.60;99.90;;;;;;4979558;28;20466;-74
2023/11/22 04:03:35;;;;;;;7.57;6.65;;;10.60;99.90;;;;;;4969140;28;20442;-75
2023/11/22 04:06:03;;;;;;;6.83;6.13;;;10.60;99.90;;;;;;4968348;28;20288;-74
2023/11/22 04:08:29;;;;;;;6.20;5.60;;;10.60;99.90;;;;;;4969498;28;20512;-74
2023/11/22 04:10:56;;;;;;;7.30;6.60;;;10.60;99.90;;;;;;4979695;28;20440;-75
2023/11/22 04:13:25;;;;;;;7.78;5.85;;;10.60;99.90;;;;;;4972789;28;20203;-75
2023/11/22 04:15:53;;;;;;;7.40;6.37;;;10.60;99.90;;;;;;4971860;28;20706;-74
2023/11/22 04:18:19;;;;;;;6.60;5.87;;;10.60;99.90;;;;;;4979715;28;20497;-75
2023/11/22 04:20:45;;;;;;;6.30;5.67;;;10.60;99.90;;;;;;4979085;28;20503;-75
2023/11/22 04:23:15;;;;;;;7.80;6.70;;;10.60;99.90;;;;;;4967859;28;20469;-75
2023/11/22 04:25:42;;;;;;;7.10;6.40;;;10.50;99.90;;;;;;4954504;28;20532;-75
2023/11/22 04:28:12;;;;;;;6.68;5.70;;;10.50;99.90;;;;;;4982581;28;20189;-76
2023/11/22 04:30:44;;;;;;;7.40;6.70;;;10.60;99.90;;;;;;4959336;28;20231;-75
2023/11/22 04:33:12;;;;;;;6.00;5.50;;;10.60;99.90;;;;;;4986000;28;20444;-75
2023/11/22 04:35:39;;;;;;;6.50;5.80;;;10.60;99.90;;;;;;4978368;28;21014;-75
2023/11/22 04:38:08;;;;;;;7.23;5.90;;;10.60;99.90;;;;;;4943176;28;20987;-75
2023/11/22 04:40:37;;;;;;;6.97;5.88;;;10.50;99.90;;;;;;4953490;28;20980;-75
2023/11/22 04:43:03;;;;;;;7.40;5.50;;;10.50;99.90;;;;;;4965722;28;20218;-75
2023/11/22 04:45:29;;;;;;;6.90;6.20;;;10.50;99.90;;;;;;4975671;28;20453;-75
2023/11/22 04:47:57;;;;;;;5.93;5.43;;;10.50;99.90;;;;;;4966225;28;20848;-75
2023/11/22 04:50:26;;;;;;;7.10;5.70;;;10.50;99.90;;;;;;4961001;28;20429;-75
2023/11/22 04:52:52;;;;;;;7.20;6.50;;;10.50;99.90;;;;;;4967389;28;20432;-75
2023/11/22 04:55:19;;;;;;;7.50;6.23;;;10.40;99.90;;;;;;4974548;28;20458;-75
2023/11/22 04:57:47;;;;;;;6.95;6.28;;;10.40;99.90;;;;;;4965485;28;20440;-75
2023/11/22 05:00:13;;;;;;;7.47;6.43;;;10.40;99.90;;;;;;4964400;28;20186;-75
2023/11/22 05:02:43;;;;;;;6.90;6.10;;;10.40;99.90;;;;;;4942209;28;20278;-75
2023/11/22 05:05:12;;;;;;;7.40;6.07;;;10.50;99.90;;;;;;4970335;28;20594;-75
2023/11/22 05:07:40;;;;;;;6.83;5.93;;;10.50;99.90;;;;;;4977220;28;20455;-75
2023/11/22 05:10:08;;;;;;;7.53;6.60;;;10.40;99.90;;;;;;4972119;28;20976;-75
2023/11/22 05:12:37;;;;;;;7.47;6.50;;;10.40;99.90;;;;;;4943383;28;20532;-75
2023/11/22 05:15:08;;;;;;;8.23;6.90;;;10.40;99.90;;;;;;4984216;28;20450;-75
2023/11/22 05:17:36;;;;;;;9.30;5.80;;;10.30;99.90;;;;;;4965371;28;20997;-75
2023/11/22 05:20:09;;;;;;;7.53;6.73;;;10.30;99.90;;;;;;4969968;28;20425;-75
2023/11/22 05:22:42;;;;;;;7.68;6.82;;;10.30;99.90;;;;;;4973162;28;21078;-75
2023/11/22 05:25:08;;;;;;;7.70;6.73;;;10.30;99.90;;;;;;4983888;28;20258;-75
2023/11/22 05:27:38;;;;;;;7.72;5.97;;;10.30;99.90;;;;;;4971033;28;20459;-75
2023/11/22 05:30:10;;;;;;;6.33;5.60;;;10.30;99.80;;;;;;4973595;28;20275;-75
2023/11/22 05:32:36;;;;;;;6.60;5.90;;;10.40;99.80;;;;;;4973486;28;20516;-74
2023/11/22 05:35:06;;;;;;;7.03;6.13;;;10.30;99.70;;;;;;4967840;28;20545;-75
2023/11/22 05:37:34;;;;;;;8.40;6.70;;;10.30;99.70;;;;;;4972246;28;20895;-75
2023/11/22 05:40:05;;;;;;;8.67;6.90;;;10.30;99.80;;;;;;4984010;28;21020;-78
2023/11/22 05:42:35;;;;;;;9.30;6.30;;;10.30;99.90;;;;;;4979729;28;20579;-74
2023/11/22 05:45:01;;;;;;;7.10;6.40;;;10.20;99.80;;;;;;4936388;28;20549;-73
2023/11/22 05:47:32;;;;;;;8.87;6.93;;;10.20;99.80;;;;;;4968538;28;20523;-74
2023/11/22 05:49:58;;;;;;;7.90;6.80;;;10.20;99.90;;;;;;4961564;28;20432;-72
2023/11/22 05:52:25;;;;;;;7.83;7.03;;;10.20;99.90;;;;;;4974024;28;20446;-73
2023/11/22 05:54:53;;;;;;;7.50;6.80;;;10.20;99.90;;;;;;4978073;28;20453;-73
2023/11/22 05:57:22;;;;;;;9.57;6.93;;;10.20;99.90;;;;;;4987521;28;20476;-74
2023/11/22 05:59:48;;;;;;;7.23;6.53;;;10.10;99.80;;;;;;4965534;28;20526;-73
2023/11/22 06:02:14;;;;;;;9.68;6.93;;;10.10;99.80;;;;;;4962510;28;20501;-73
2023/11/22 06:04:40;;;;;;;8.57;7.33;;;10.10;99.80;;;;;;4970868;28;20196;-74
2023/11/22 06:07:09;;;;;;;7.90;6.33;;;10.20;99.80;;;;;;4991223;28;20437;-73
2023/11/22 06:09:39;;;;;;;8.10;6.57;;;10.20;99.70;;;;;;4966016;28;21250;-73
2023/11/22 06:12:08;;;;;;;8.60;6.70;;;10.10;99.60;;;;;;4963812;28;20447;-73
2023/11/22 06:14:34;;;;;;;7.17;6.20;;;10.10;99.60;;;;;;4973896;28;20442;-73
2023/11/22 06:17:03;;;;;;;8.27;6.90;;;10.10;99.70;;;;;;4960634;28;20493;-73
2023/11/22 06:19:31;;;;;;;8.70;7.27;;;10.10;99.70;;;;;;4976585;28;20280;-73
2023/11/22 06:21:57;;;;;;;8.20;7.13;;;10.00;99.70;;;;;;4963150;28;20474;-75
2023/11/22 06:24:23;;;;;;;8.77;7.47;;;10.00;99.70;;;;;;4962633;28;20497;-72
2023/11/22 06:26:51;;;;;;;6.93;6.33;;;10.00;99.60;;;;;;4967273;28;20469;-72
2023/11/22 06:29:17;;;;;;;6.87;6.17;;;10.00;99.70;;;;;;4963665;28;20438;-72
2023/11/22 06:31:46;;;;;;;7.60;6.07;;;10.00;99.60;;;;;;4980415;28;21438;-72
2023/11/22 06:34:12;;;;;;;7.20;6.10;;;10.00;99.60;;;;;;4965580;28;20476;-72
2023/11/22 06:36:38;;;;;;;6.70;6.00;;;10.00;99.60;;;;;;4953330;28;20965;-73
2023/11/22 06:39:05;;;;;;;7.13;6.43;;;10.00;99.60;;;;;;4987397;28;20445;-73
2023/11/22 06:41:31;;;;;;;6.20;5.60;;;10.00;99.60;;;;;;4968196;28;20470;-72
2023/11/22 06:43:57;;;;;;;6.77;6.07;;;10.00;99.50;;;;;;4969286;28;20509;-72
2023/11/22 06:46:27;;;;;;;15.17;6.93;;;10.00;99.50;;;;;;4979993;28;20482;-72
2023/11/22 06:48:55;;;;;;;7.13;6.40;;;10.00;99.50;;;;;;4948024;28;20549;-72
2023/11/22 06:51:24;;;;;;;6.43;5.83;;;9.90;99.90;;;;;;4964967;28;20492;-72
2023/11/22 06:53:54;;;;;;;7.57;6.00;;;9.90;99.90;;;;;;4972472;28;20461;-72
2023/11/22 06:56:25;;;;;;;6.07;5.47;;;9.90;99.90;;;;;;4962284;28;20485;-72
2023/11/22 06:58:57;;;;;;;6.10;5.50;;;9.90;99.90;;;;;;4963447;28;20203;-72
2023/11/22 07:01:27;;;;;;;6.83;6.20;;;10.00;99.30;;;;;;4947943;28;20781;-72
2023/11/22 07:03:54;;;;;;;6.22;5.65;;;10.00;99.20;;;;;;4950952;28;20485;-72
2023/11/22 07:06:22;;;;;;;6.87;6.20;;;10.00;99.20;;;;;;4964013;28;20207;-72
2023/11/22 07:08:50;;;;;;;7.00;6.30;;;10.00;99.10;;;;;;4954104;28;20454;-71
2023/11/22 07:11:24;;;;;;;7.13;6.40;;;10.00;99.00;;;;;;4963592;28;20454;-72
2023/11/22 07:13:51;;;;;;;6.77;6.03;;;9.90;99.50;;;;;;4967082;28;20419;-72
2023/11/22 07:16:18;;;;;;;6.65;5.93;;;9.90;99.60;;;;;;4977918;28;20458;-72
2023/11/22 07:18:47;;;;;;;6.77;6.00;;;9.90;99.60;;;;;;4977994;28;20289;-72
2023/11/22 07:21:13;;;;;;;7.03;5.70;;;9.90;99.50;;;;;;4980154;28;20436;-73
2023/11/22 07:23:45;;;;;;;5.80;5.20;;;9.90;99.40;;;;;;4997872;28;20433;-72
2023/11/22 07:26:11;;;;;;;6.97;6.27;;;9.90;99.40;;;;;;4970494;28;20519;-72
2023/11/22 07:28:37;;;;;;;6.27;5.50;;;9.90;99.50;;;;;;4955628;28;20485;-72
2023/11/22 07:31:07;;;;;;;5.93;5.03;;;9.80;99.40;;;;;;4952396;28;20525;-72
2023/11/22 07:33:36;;;;;;;8.43;5.80;;;9.80;99.50;;;;;;4956673;28;20438;-72
2023/11/22 07:36:03;;;;;;;6.77;5.90;;;9.80;99.50;;;;;;4957744;28;20468;-73
2023/11/22 07:38:33;;;;;;;6.90;5.70;;;9.80;99.50;;;;;;4963155;28;20438;-73
2023/11/22 07:40:59;;;;;;;7.10;6.17;;;9.80;99.60;;;;;;4978019;28;20437;-73
2023/11/22 07:43:27;;;;;;;6.20;5.40;;;9.70;99.50;;;;;;4963163;28;20485;-73
2023/11/22 07:45:53;;;;;;;7.57;6.40;;;9.70;99.50;;;;;;4959464;28;20477;-72
2023/11/22 07:48:22;;;;;;;7.10;6.27;;;9.70;99.90;;;;;;4962249;28;20414;-71
2023/11/22 07:50:51;;;;;;;6.33;5.73;;;9.70;99.60;;;;;;4961228;28;21210;-72
2023/11/22 07:53:20;;;;;;;8.43;5.97;;;9.70;99.60;;;;;;4945133;28;20457;-72
2023/11/22 07:55:48;;;;;;;6.07;5.27;;;9.70;99.60;;;;;;4964285;28;20472;-72
2023/11/22 07:58:15;;;;;;;7.80;5.87;;;9.70;99.60;;;;;;4964679;28;20430;-71
2023/11/22 08:00:45;;;;;;;6.30;5.70;;;9.70;99.60;;;;;;4963711;28;20954;-71
2023/11/22 08:03:18;;;;;;;6.30;5.57;;;9.60;99.60;;;;;;4953687;28;20582;-72
2023/11/22 08:05:48;;;;;;;6.80;5.97;;;9.60;99.60;;;;;;4977886;28;20453;-72
2023/11/22 08:08:15;;;;;;;6.20;5.53;;;9.60;99.60;;;;;;4962237;28;20842;-72
2023/11/22 08:10:43;;;;;;;5.60;5.00;;;9.60;99.60;;;;;;4964026;28;21001;-72
2023/11/22 08:13:44;;;;;;;7.03;5.53;;;9.60;99.70;;;;;;4931236;28;20914;-73
2023/11/22 08:16:14;;;;;;;7.60;5.40;;;9.60;99.70;;;;;;4970813;28;20494;-73
2023/11/22 08:18:42;;;;;;;5.93;5.33;;;9.60;99.70;;;;;;4978522;28;21087;-71
2023/11/22 08:21:11;;;;;;;6.07;5.47;;;9.60;99.70;;;;;;4970380;28;20445;-72
2023/11/22 08:23:37;;;;;;;5.97;5.30;;;9.60;99.70;;;;;;4929970;28;20437;-71
2023/11/22 08:26:05;;;;;;;6.07;5.47;;;9.60;99.70;;;;;;4966204;28;20453;-72
2023/11/22 08:28:31;;;;;;;5.77;5.27;;;9.60;99.70;;;;;;4962179;28;20458;-72
2023/11/22 08:30:56;;;;;;;6.47;5.77;;;9.60;99.70;;;;;;4962811;28;20428;-72
2023/11/22 08:33:26;;;;;;;6.07;5.47;;;9.60;99.70;;;;;;4977143;28;20418;-72
2023/11/22 08:35:58;;;;;;;6.20;5.60;;;9.60;99.70;;;;;;4962704;28;20454;-72
2023/11/22 08:38:26;;;;;;;7.93;5.43;;;9.60;99.90;;;;;;4987649;22;20728;-39
2023/11/22 08:40:52;;;;;;;7.23;5.10;;;9.60;99.60;;;;;;4973000;28;20525;-42
2023/11/22 08:43:22;;;;;;;7.40;5.80;;;9.70;99.50;;;;;;5023821;28;20476;-42
2023/11/22 08:45:52;;;;;;;5.90;5.30;;;9.70;99.50;;;;;;5001192;28;20468;-42
2023/11/22 08:48:18;;;;;;;5.67;5.10;;;9.60;99.40;;;;;;5018723;28;20439;-41
2023/11/22 08:50:48;;;;;;;5.70;4.45;;;9.60;99.50;;;;;;5034771;28;20435;-42
2023/11/22 08:53:20;;;;;;;7.00;5.07;;;9.60;99.50;;;;;;5035727;28;20450;-41
2023/11/22 08:55:48;;;;;;;6.32;5.40;;;9.70;99.50;;;;;;5017941;28;20676;-41
2023/11/22 08:58:17;;;;;;;6.03;4.90;;;9.70;99.30;;;;;;5036011;28;20200;-41
2023/11/22 09:00:44;;;;;;;7.53;5.57;;;9.80;99.20;;;;;;5036770;28;20282;-40
2023/11/22 09:03:12;;;;;;;6.27;5.20;;;9.80;99.10;;;;;;5037062;28;20303;-42
2023/11/22 09:05:42;;;;;;;5.63;5.13;;;9.80;99.00;;;;;;5033200;28;21115;-42
2023/11/22 09:08:14;;;;;;;5.43;4.93;;;9.80;99.10;;;;;;5035901;28;20931;-41
2023/11/22 09:10:44;;;;;;;6.90;5.07;;;9.80;99.10;;;;;;5028359;28;20627;-42
2023/11/22 09:13:10;;;;;;;5.80;5.25;;;9.80;99.10;;;;;;5016976;28;20452;-40
2023/11/22 09:15:38;;;;;;;6.33;5.50;;;9.70;99.10;;;;;;5031347;28;20784;-42
2023/11/22 09:18:04;;;;;;;5.57;5.00;;;9.70;99.10;;;;;;5017254;28;20454;-41
2023/11/22 09:20:30;;;;;;;5.63;5.13;;;9.70;99.20;;;;;;5029896;28;20436;-41
2023/11/22 09:22:56;;;;;;;5.87;5.27;;;9.70;99.30;;;;;;5017814;28;21534;-38
2023/11/22 09:25:28;;;;;;;6.67;5.30;;;9.70;99.40;;;;;;5030748;28;20474;-40
2023/11/22 09:27:58;;;;;;;6.63;5.50;;;9.60;99.50;;;;;;5032388;28;20484;-42
2023/11/22 09:30:32;;;;;;;5.90;5.30;;;9.60;99.50;;;;;;5032240;28;20184;-41
2023/11/22 09:32:59;;;;;;;5.77;4.67;;;9.60;99.50;;;;;;5033646;28;20813;-42
2023/11/22 09:35:25;;;;;;;8.77;5.70;;;9.60;99.50;;;;;;5036027;28;20444;-41
2023/11/22 09:37:53;;;;;;;6.10;5.37;;;9.60;99.60;;;;;;5013364;28;20469;-41
2023/11/22 09:40:19;;;;;;;5.50;5.00;;;9.60;99.60;;;;;;5024735;28;20933;-39
2023/11/22 09:42:51;;;;;;;5.40;4.87;;;9.60;99.70;;;;;;5034455;28;20495;-42
2023/11/22 09:45:20;;;;;;;4.97;4.47;;;9.60;99.70;;;;;;5029812;28;20466;-41
2023/11/22 09:47:48;;;;;;;5.60;4.67;;;9.50;99.80;;;;;;5017110;28;20641;-39
2023/11/22 09:50:42;;;;;;;5.97;4.80;;;9.60;99.90;;;;;;5002448;28;20434;-42
2023/11/22 09:53:20;;;;;;;5.38;4.88;;;9.50;99.80;;;;;;5021969;28;20443;-41
2023/11/22 09:55:48;;;;;;;5.87;5.23;;;9.60;99.90;;;;;;5014004;28;20270;-41
2023/11/22 09:58:17;;;;;;;5.63;4.90;;;9.60;99.80;;;;;;5001173;28;20469;-42
2023/11/22 10:00:43;;;;;;;5.00;4.20;;;9.60;99.80;;;;;;5028852;28;20897;-41
2023/11/22 10:03:12;;;;;;;5.10;4.60;;;9.60;99.90;;;;;;5033259;28;20469;-42
2023/11/22 10:05:42;;;;;;;5.23;4.13;;;9.60;99.90;;;;;;5011147;28;20435;-42
2023/11/22 10:08:10;;;;;;;5.93;4.63;;;9.60;99.90;;;;;;5024593;28;21222;-41
2023/11/22 10:10:40;;;;;;;6.30;4.50;;;9.60;99.90;;;;;;5036259;28;20500;-41
2023/11/22 10:13:05;;;;;;;5.93;5.03;;;9.60;99.90;;;;;;4986133;28;20834;-41
2023/11/22 10:15:32;;;;;;;8.37;4.90;;;9.60;99.90;;;;;;5031979;28;20479;-41
2023/11/22 10:18:00;;;;;;;8.23;4.97;;;9.50;99.90;;;;;;5031916;28;20459;-42
2023/11/22 10:20:39;;;;;;;6.13;5.17;;;9.50;99.90;;;;;;5034350;28;20440;-42
2023/11/22 10:23:28;;;;;;;4.93;4.43;;;9.50;99.90;;;;;;5037275;28;21158;-41
2023/11/22 10:25:55;;;;;;;6.10;4.40;;;9.50;99.90;;;;;;5028010;28;20500;-41
2023/11/22 10:28:25;;;;;;;5.20;4.70;;;9.50;99.90;;;;;;5020835;28;20434;-42
2023/11/22 10:30:51;;;;;;;4.33;3.93;;;9.50;99.90;;;;;;5040931;28;20430;-41
2023/11/22 10:33:22;;;;;;;4.90;4.40;;;9.60;99.90;;;;;;5040919;28;20524;-40
2023/11/22 10:35:52;;;;;;;5.17;4.60;;;9.50;99.90;;;;;;5021038;28;20442;-38
2023/11/22 10:38:21;;;;;;;4.70;4.17;;;9.50;99.90;;;;;;5033128;28;20458;-41
2023/11/22 10:40:48;;;;;;;6.67;4.77;;;9.50;99.90;;;;;;5034633;28;20426;-42
2023/11/22 10:43:17;;;;;;;6.83;4.70;;;9.50;99.90;;;;;;5031884;28;20507;-41
2023/11/22 10:45:49;;;;;;;5.90;4.33;;;9.60;99.90;;;;;;5022716;28;20455;-41
2023/11/22 10:48:17;;;;;;;5.07;4.57;;;9.50;99.90;;;;;;5004325;28;20416;-41
2023/11/22 10:50:44;;;;;;;4.47;4.07;;;9.60;99.90;;;;;;5035768;28;20467;-39
2023/11/22 10:53:13;;;;;;;5.07;4.20;;;9.60;99.90;;;;;;5032303;28;20461;-39
2023/11/22 10:55:47;;;;;;;4.88;4.38;;;9.60;99.90;;;;;;5035149;28;20438;-40
2023/11/22 10:58:14;;;;;;;7.93;4.40;;;9.60;99.90;;;;;;5037568;28;20198;-41
2023/11/22 11:00:45;;;;;;;4.30;3.90;;;9.60;99.80;;;;;;5039659;28;20430;-40
2023/11/22 11:03:19;;;;;;;4.30;3.90;;;9.70;99.80;;;;;;5039415;28;20548;-41
2023/11/22 11:06:07;;;;;;;4.03;3.60;;;9.60;99.70;;;;;;5025209;28;20420;-41
2023/11/22 11:08:38;;;;;;;4.33;3.83;;;9.60;99.60;;;;;;5035994;28;20423;-39
2023/11/22 11:11:05;;;;;;;4.03;3.53;;;9.60;99.60;;;;;;5035136;28;20542;-42
2023/11/22 11:13:32;;;;;;;4.87;4.00;;;9.60;99.60;;;;;;5030628;28;20453;-41
2023/11/22 11:15:59;;;;;;;4.17;3.77;;;9.60;99.60;;;;;;5038120;28;20529;-41
2023/11/22 11:18:27;;;;;;;4.40;4.00;;;9.60;99.60;;;;;;5039031;28;20442;-41
2023/11/22 11:20:56;;;;;;;4.70;3.97;;;9.60;99.70;;;;;;5021226;28;20439;-40
2023/11/22 11:23:27;;;;;;;4.00;3.63;;;9.60;99.70;;;;;;5039840;28;20477;-41
2023/11/22 11:25:57;;;;;;;4.47;4.07;;;9.60;99.70;;;;;;5021722;28;20435;-42
2023/11/22 11:28:27;;;;;;;3.83;3.53;;;9.70;99.70;;;;;;5030805;28;20514;-41
2023/11/22 11:30:57;;;;;;;5.88;4.07;;;9.70;99.70;;;;;;5038696;28;20415;-42
2023/11/22 11:33:53;;;;;;;3.65;3.35;;;9.70;99.70;;;;;;5037570;28;20326;-42
2023/11/22 11:36:29;;;;;;;4.13;3.73;;;9.80;99.60;;;;;;5015559;28;20577;-41
2023/11/22 11:38:56;;;;;;;9.93;3.90;;;9.80;99.40;;;;;;5038492;28;20446;-39
2023/11/22 11:41:34;;;;;;;4.30;3.80;;;9.80;99.40;;;;;;5035762;28;20463;-41
2023/11/22 11:44:07;;;;;;;4.53;4.05;;;9.80;99.40;;;;;;5039350;28;20200;-39
2023/11/22 11:46:36;;;;;;;3.73;3.40;;;9.80;99.30;;;;;;5016360;28;20205;-41
2023/11/22 11:49:09;;;;;;;3.90;3.60;;;9.90;99.20;;;;;;5003405;28;20863;-41
2023/11/22 11:51:37;;;;;;;4.37;3.70;;;9.80;99.10;;;;;;5003873;28;20442;-39
2023/11/22 11:54:04;;;;;;;4.03;3.63;;;9.80;99.00;;;;;;5003714;28;20459;-42
2023/11/22 11:56:32;;;;;;;3.70;3.30;;;9.80;99.10;;;;;;5039127;28;20439;-41
2023/11/22 11:59:00;;;;;;;3.33;3.03;;;9.80;99.10;;;;;;5021644;28;20989;-41
2023/11/22 12:01:29;;;;;;;5.30;3.90;;;9.80;99.10;;;;;;5017679;28;20201;-38
2023/11/22 12:03:55;;;;;;;3.90;3.60;;;9.90;99.20;;;;;;5020466;28;20460;-38
2023/11/22 12:06:21;;;;;;;4.20;3.80;;;9.90;99.20;;;;;;5038677;28;20193;-39
2023/11/22 12:08:47;;;;;;;4.13;3.70;;;9.90;99.10;;;;;;5033984;28;20442;-41
2023/11/22 12:11:15;;;;;;;4.00;3.37;;;9.90;99.00;;;;;;5020521;28;20423;-39
2023/11/22 12:13:46;;;;;;;3.93;3.53;;;9.80;99.10;;;;;;4994069;28;21108;-42
2023/11/22 12:16:17;;;;;;;4.00;3.60;;;9.80;99.20;;;;;;5015651;28;20434;-40
2023/11/22 12:18:49;;;;;;;3.50;3.20;;;9.80;99.30;;;;;;4981378;28;20434;-40
2023/11/22 12:21:19;;;;;;;4.07;3.67;;;9.80;99.40;;;;;;5037915;28;20917;-42
2023/11/22 12:23:46;;;;;;;4.20;3.80;;;9.80;99.30;;;;;;5014928;28;20442;-41
2023/11/22 12:26:14;;;;;;;4.10;3.27;;;9.80;99.10;;;;;;5037454;28;20414;-42
2023/11/22 12:28:46;;;;;;;4.73;3.70;;;9.80;99.10;;;;;;5019520;28;20999;-42
2023/11/22 12:31:17;;;;;;;4.17;3.40;;;9.80;99.00;;;;;;5033677;28;20990;-42
2023/11/22 12:33:45;;;;;;;3.80;3.40;;;9.80;98.90;;;;;;5010248;28;20447;-42
2023/11/22 12:36:16;;;;;;;4.70;3.37;;;9.90;98.90;;;;;;5017125;28;21034;-42
2023/11/22 12:38:42;;;;;;;3.27;2.97;;;9.90;98.80;;;;;;5031211;28;21254;-41
2023/11/22 12:41:08;;;;;;;3.65;3.35;;;9.90;98.70;;;;;;5035571;28;20458;-40
2023/11/22 12:43:35;;;;;;;3.90;3.50;;;9.90;98.60;;;;;;5001111;28;20731;-42
2023/11/22 12:46:15;;;;;;;3.33;3.03;;;9.90;98.40;;;;;;5012014;28;20436;-41
2023/11/22 12:48:42;;;;;;;4.18;3.40;;;9.90;98.70;;;;;;5008432;28;20444;-42
2023/11/22 12:54:06;;;;;;;3.33;3.03;;;9.90;98.30;;;;;;4978407;28;21381;-27
2023/11/22 12:56:33;;;;;;;3.43;3.13;;;9.90;98.40;;;;;;4980991;28;20417;-28
2023/11/22 12:59:01;;;;;;;3.23;2.90;;;9.90;98.50;;;;;;4973655;28;20478;-29
2023/11/22 13:01:28;;;;;;;3.20;2.90;;;9.80;98.60;;;;;;4980586;28;20951;-30
2023/11/22 13:03:56;;;;;;;3.30;3.00;;;9.80;98.80;;;;;;4980813;28;20990;-29